createdAt,value
2023-04-16T00:02:01.679Z,86
2023-04-16T00:07:07.669Z,88.5
2023-04-16T00:12:13.752Z,89
2023-04-16T00:17:19.888Z,88
2023-04-16T00:22:26.042Z,88
2023-04-16T00:27:32.198Z,89
2023-04-16T00:32:38.362Z,89
2023-04-16T00:37:44.444Z,89.5
2023-04-16T00:42:50.594Z,89
2023-04-16T00:47:57.767Z,90.5
2023-04-16T00:53:02.878Z,88.5
2023-04-16T00:58:09.008Z,87
2023-04-16T01:03:15.335Z,88
2023-04-16T01:08:21.309Z,88
2023-04-16T01:13:27.421Z,89
2023-04-16T01:18:33.642Z,87.5
2023-04-16T01:23:39.730Z,88
2023-04-16T01:28:45.888Z,87.5
2023-04-16T01:33:52.017Z,84
2023-04-16T01:38:58.153Z,86
2023-04-16T01:44:04.314Z,86.5
2023-04-16T01:49:10.526Z,85.5
2023-04-16T01:54:16.584Z,89
2023-04-16T01:59:22.728Z,87.5
2023-04-16T02:04:28.821Z,86.5
2023-04-16T02:09:34.990Z,87.5
2023-04-16T02:14:41.109Z,88
2023-04-16T02:19:47.267Z,88.5
2023-04-16T02:24:53.378Z,90
2023-04-16T02:29:59.522Z,89.5
2023-04-16T02:35:05.688Z,89.5
2023-04-16T02:40:11.809Z,89.5
2023-04-16T02:45:17.949Z,89
2023-04-16T02:50:24.105Z,89.5
2023-04-16T02:55:30.228Z,89.5
2023-04-16T03:00:36.367Z,89.5
2023-04-16T03:05:42.511Z,86.5
2023-04-16T03:10:48.690Z,88
2023-04-16T03:15:54.802Z,88
2023-04-16T03:21:00.923Z,89
2023-04-16T03:26:07.104Z,89
2023-04-16T03:31:13.240Z,86.5
2023-04-16T03:36:19.484Z,88.5
2023-04-16T03:41:25.505Z,88
2023-04-16T03:46:31.669Z,87.5
2023-04-16T03:51:37.775Z,86.5
2023-04-16T03:56:43.924Z,88
2023-04-16T04:01:50.140Z,88
2023-04-16T04:06:56.193Z,87
2023-04-16T04:12:03.311Z,87.5
2023-04-16T04:17:08.572Z,88
2023-04-16T04:22:15.643Z,88
2023-04-16T04:27:20.813Z,88
2023-04-16T04:32:26.902Z,86
2023-04-16T04:37:33.040Z,88
2023-04-16T04:42:39.211Z,86
2023-04-16T04:47:45.375Z,86
2023-04-16T04:52:51.443Z,86
2023-04-16T04:57:57.607Z,84.5
2023-04-16T05:03:03.808Z,86.5
2023-04-16T05:08:09.860Z,87
2023-04-16T05:13:16.028Z,85
2023-04-16T05:18:22.170Z,87
2023-04-16T05:23:28.317Z,86
2023-04-16T05:28:34.441Z,86.5
2023-04-16T05:33:40.587Z,88
2023-04-16T05:38:46.739Z,85
2023-04-16T05:43:52.932Z,85.5
2023-04-16T05:48:59.042Z,85
2023-04-16T05:54:05.122Z,84.5
2023-04-16T05:59:11.370Z,85.5
2023-04-16T06:04:17.496Z,83.5
2023-04-16T06:09:23.547Z,84
2023-04-16T06:14:29.676Z,85.5
2023-04-16T06:19:35.827Z,86.5
2023-04-16T06:24:41.970Z,82
2023-04-16T06:29:48.104Z,82.5
2023-04-16T06:34:54.253Z,80.5
2023-04-16T06:40:00.490Z,81.5
2023-04-16T06:45:06.538Z,76
2023-04-16T06:50:12.699Z,75.5
2023-04-16T06:55:18.836Z,60.5
2023-04-16T07:00:24.950Z,67
2023-04-16T07:05:31.084Z,70.5
2023-04-16T07:10:37.257Z,70
2023-04-16T07:15:43.433Z,64.5
2023-04-16T07:20:49.534Z,61.5
2023-04-16T07:25:55.695Z,65.5
2023-04-16T07:31:01.809Z,68
2023-04-16T07:36:07.954Z,73
2023-04-16T07:41:14.128Z,76.5
2023-04-16T07:46:20.319Z,74.5
2023-04-16T07:51:26.383Z,75
2023-04-16T07:56:32.498Z,82.5
2023-04-16T08:01:38.651Z,81.5
2023-04-16T08:06:44.802Z,86
2023-04-16T08:11:51.013Z,81.5
2023-04-16T08:16:57.071Z,82.5
2023-04-16T08:22:03.227Z,82.5
2023-04-16T08:27:18.269Z,82.5
2023-04-16T08:32:15.509Z,84
2023-04-16T08:37:21.640Z,84
2023-04-16T08:42:27.952Z,86
2023-04-16T08:47:33.939Z,84.5
2023-04-16T08:52:40.052Z,84
2023-04-16T08:57:46.171Z,82
2023-04-16T09:02:52.512Z,79
2023-04-16T09:07:58.494Z,76.5
2023-04-16T09:13:04.619Z,76
2023-04-16T09:18:10.748Z,75.5
2023-04-16T09:23:16.917Z,77.5
2023-04-16T09:28:23.017Z,78
2023-04-16T09:33:29.174Z,80
2023-04-16T09:38:35.330Z,79
2023-04-16T09:43:41.472Z,81
2023-04-16T09:48:47.602Z,79.5
2023-04-16T09:53:53.744Z,76.5
2023-04-16T09:58:59.893Z,79.5
2023-04-16T10:04:06.046Z,80
2023-04-16T10:09:12.347Z,79
2023-04-16T10:14:18.312Z,78.5
2023-04-16T10:19:24.451Z,78
2023-04-16T10:24:30.592Z,74
2023-04-16T10:29:36.737Z,76
2023-04-16T10:34:42.865Z,71
2023-04-16T10:39:49.060Z,75
2023-04-16T10:44:55.166Z,75.5
2023-04-16T10:50:01.325Z,70
2023-04-16T10:55:07.452Z,71.5
2023-04-16T11:00:13.576Z,71.5
2023-04-16T11:05:19.707Z,70.5
2023-04-16T11:10:25.864Z,74
2023-04-16T11:15:31.988Z,69.5
2023-04-16T11:20:38.116Z,71
2023-04-16T11:25:44.320Z,72.5
2023-04-16T11:30:50.422Z,73
2023-04-16T11:35:56.559Z,74
2023-04-16T11:41:02.696Z,70
2023-04-16T11:46:20.366Z,70.5
2023-04-16T11:51:14.976Z,67
2023-04-16T11:56:21.111Z,69
2023-04-16T12:01:27.250Z,68
2023-04-16T12:06:33.418Z,68
2023-04-16T12:11:39.572Z,69
2023-04-16T12:16:45.706Z,66
2023-04-16T12:21:51.864Z,67.5
2023-04-16T12:26:57.957Z,66.5
2023-04-16T12:32:04.111Z,68.5
2023-04-16T12:37:10.254Z,71.5
2023-04-16T12:42:16.390Z,65
2023-04-16T12:47:22.565Z,67.5
2023-04-16T12:52:28.671Z,71
2023-04-16T12:57:34.845Z,70
2023-04-16T13:02:41.063Z,69.5
2023-04-16T13:07:47.101Z,68.5
2023-04-16T13:12:53.253Z,69.5
2023-04-16T13:17:59.396Z,71.5
2023-04-16T13:23:05.532Z,69.5
2023-04-16T13:28:11.676Z,68.5
2023-04-16T13:33:17.780Z,69
2023-04-16T13:38:23.938Z,67
2023-04-16T13:43:30.077Z,68
2023-04-16T13:48:36.194Z,67.5
2023-04-16T13:53:52.611Z,66
2023-04-16T13:58:58.769Z,66.5
2023-04-16T14:04:05.033Z,67
2023-04-16T14:09:11.289Z,67
2023-04-16T14:14:17.183Z,66.5
2023-04-16T14:19:23.315Z,67.5
2023-04-16T14:24:29.485Z,69.5
2023-04-16T14:29:35.644Z,69.5
2023-04-16T14:34:41.751Z,64.5
2023-04-16T14:39:48.112Z,67.5
2023-04-16T14:44:54.049Z,68.5
2023-04-16T14:50:00.185Z,65.5
2023-04-16T14:55:06.347Z,66.5
2023-04-16T15:00:12.487Z,68
2023-04-16T15:05:18.592Z,66.5
2023-04-16T15:10:24.741Z,63.5
2023-04-16T15:15:30.892Z,65
2023-04-16T15:20:37.017Z,65.5
2023-04-16T15:25:43.163Z,62
2023-04-16T15:30:49.310Z,65
2023-04-16T15:35:55.450Z,66
2023-04-16T15:41:01.650Z,65.5
2023-04-16T15:46:07.781Z,66.5
2023-04-16T15:51:13.863Z,65.5
2023-04-16T15:56:20.013Z,66
2023-04-16T16:01:26.132Z,66.5
2023-04-16T16:06:32.273Z,64.5
2023-04-16T16:11:38.421Z,67
2023-04-16T16:16:44.570Z,64.5
2023-04-16T16:21:50.704Z,67.5
2023-04-16T16:26:56.858Z,66.5
2023-04-16T16:32:02.998Z,66.5
2023-04-16T16:37:09.146Z,67.5
2023-04-16T16:42:15.273Z,65.5
2023-04-16T16:47:21.408Z,68.5
2023-04-16T16:52:27.553Z,69.5
2023-04-16T16:57:33.696Z,71
2023-04-16T17:02:39.918Z,70.5
2023-04-16T17:07:45.963Z,73
2023-04-16T17:12:52.135Z,73
2023-04-16T17:17:58.257Z,74
2023-04-16T17:23:04.412Z,73.5
2023-04-16T17:28:10.529Z,76.5
2023-04-16T17:33:16.744Z,74.5
2023-04-16T17:38:22.801Z,75
2023-04-16T17:43:28.951Z,75.5
2023-04-16T17:48:35.114Z,76
2023-04-16T17:53:41.259Z,76.5
2023-04-16T17:58:47.364Z,76
2023-04-16T18:03:53.607Z,76
2023-04-16T18:08:59.672Z,76.5
2023-04-16T18:14:05.793Z,77
2023-04-16T18:19:11.923Z,77
2023-04-16T18:24:18.074Z,79
2023-04-16T18:29:25.184Z,76.5
2023-04-16T18:34:30.540Z,78.5
2023-04-16T18:39:36.482Z,78.5
2023-04-16T18:44:42.632Z,78
2023-04-16T18:49:48.758Z,77.5
2023-04-16T18:54:54.918Z,78
2023-04-16T19:00:01.028Z,79.5
2023-04-16T19:05:07.201Z,77.5
2023-04-16T19:10:13.337Z,76.5
2023-04-16T19:15:19.478Z,78
2023-04-16T19:20:25.629Z,77.5
2023-04-16T19:25:31.753Z,79.5
2023-04-16T19:30:37.875Z,80.5
2023-04-16T19:35:44.041Z,81
2023-04-16T19:40:50.178Z,80
2023-04-16T19:45:56.331Z,80
2023-04-16T19:51:02.453Z,79.5
2023-04-16T19:56:08.612Z,80.5
2023-04-16T20:01:14.783Z,80
2023-04-16T20:06:20.876Z,80
2023-04-16T20:11:27.021Z,80.5
2023-04-16T20:16:33.231Z,80.5
2023-04-16T20:21:39.285Z,80
2023-04-16T20:26:45.661Z,81.5
2023-04-16T20:31:51.600Z,81
2023-04-16T20:36:57.718Z,80.5
2023-04-16T20:42:03.837Z,80.5
2023-04-16T20:47:09.991Z,80.5
2023-04-16T20:52:16.152Z,80.5
2023-04-16T20:57:22.313Z,82
2023-04-16T21:02:28.776Z,81.5
2023-04-16T21:07:34.566Z,81
2023-04-16T21:12:40.697Z,80
2023-04-16T21:17:46.866Z,80.5
2023-04-16T21:22:52.966Z,80
2023-04-16T21:27:59.137Z,80
2023-04-16T21:33:05.318Z,80.5
2023-04-16T21:38:11.382Z,80
2023-04-16T21:43:17.524Z,80.5
2023-04-16T21:48:23.664Z,81
2023-04-16T21:53:29.806Z,81
2023-04-16T21:58:35.966Z,80
2023-04-16T22:03:42.159Z,79.5
2023-04-16T22:08:48.224Z,79.5
2023-04-16T22:13:54.377Z,79.5
2023-04-16T22:19:00.538Z,79.5
2023-04-16T22:24:06.669Z,79
2023-04-16T22:29:12.901Z,77.5
2023-04-16T22:34:18.934Z,79
2023-04-16T22:39:25.068Z,79
2023-04-16T22:44:31.250Z,80
2023-04-16T22:49:37.367Z,80
2023-04-16T22:54:43.495Z,80
2023-04-16T22:59:49.670Z,80
2023-04-16T23:04:55.790Z,80
2023-04-16T23:10:01.950Z,80.5
2023-04-16T23:15:08.082Z,82
2023-04-16T23:20:14.238Z,81.5
2023-04-16T23:25:20.345Z,82
2023-04-16T23:30:26.471Z,82
2023-04-16T23:35:32.625Z,82.5
2023-04-16T23:40:38.774Z,82
2023-04-16T23:45:44.915Z,82.5
2023-04-16T23:50:51.044Z,82.5
2023-04-16T23:55:57.180Z,82.5
